Weather History for Thief River Falls, MN

Change the Weather History Date:

Saturday, September 14, 2013

  Actual Average Record
Temperature  
Mean Temperature 60 °F -  
Max Temperature 66 °F 66 °F 84 °F (2006)
Min Temperature 55 °F 47 °F 30 °F (2007)
Degree Days  
Heating Degree Days 4    
Growing Degree Days 10 (Base 50)    
Moisture  
Dew Point 50 °F    
Average Humidity 69    
Maximum Humidity 88    
Minimum Humidity 55    
Precipitation  
Precipitation 0.00 in - - ()
Sea Level Pressure  
Sea Level Pressure 29.89 in    
Wind  
Wind Speed 10 mph (SSW)    
Max Wind Speed 21 mph    
Max Gust Speed 24 mph    
Visibility 10 miles    
Events      
Averages and records for this station are not official NWS values.
T = Trace of Precipitation, MM = Missing Value Source: NWS Daily Summary

Daily Weather History Graph

Daily Weather History Graph

Search for Another Location

Airport:

Trip Planner

Search our weather history database for the weather conditions in past years. The results will help you decide how hot, cold, wet, or windy it might be!

Date:

Astronomy

Sep. 14, 2013 Rise Set
Actual Time 7:00 AM CDT 7:38 PM CDT
Civil Twilight 6:29 AM CDT 8:09 PM CDT
Nautical Twilight 5:52 AM CDT 8:46 PM CDT
Astronomical Twilight 5:13 AM CDT 9:25 PM CDT
Moon 4:37 PM CDT (9/14) 1:14 AM CDT (9/14)
Length of Visible Light 13h 40m
Length of Day
12h 37m
Waxing Gibbous, 72% of the Moon is Illuminated
Sep 14
Waxing Gibbous
Sep 19
Full
Sep 26
Last Quarter
Oct 4
New
Oct 11
First Quarter

Hourly Weather History & Observations

Time (CDT) Temp. Dew Point Humidity Pressure Visibility Wind Dir Wind Speed Gust Speed Precip Events Conditions
12:15 AM 60.8 °F 44.6 °F 55% 29.94 in 10.0 mi South 13.8 mph - N/A   Clear
12:35 AM 60.8 °F 46.4 °F 59% 29.93 in 10.0 mi South 12.7 mph - N/A   Clear
12:55 AM 59.0 °F 44.6 °F 59% 29.93 in 10.0 mi South 10.4 mph - N/A   Clear
1:15 AM 59.0 °F 44.6 °F 59% 29.93 in 10.0 mi South 11.5 mph - N/A   Clear
1:35 AM 59.0 °F 44.6 °F 59% 29.92 in 10.0 mi South 11.5 mph - N/A   Clear
1:55 AM 59.0 °F 44.6 °F 59% 29.92 in 10.0 mi South 11.5 mph - N/A   Clear
2:15 AM 59.0 °F 44.6 °F 59% 29.91 in 10.0 mi South 12.7 mph - N/A   Clear
2:35 AM 57.2 °F 44.6 °F 63% 29.90 in 10.0 mi South 11.5 mph - N/A   Clear
2:55 AM 57.2 °F 44.6 °F 63% 29.90 in 10.0 mi South 9.2 mph - N/A   Clear
3:15 AM 57.2 °F 44.6 °F 63% 29.90 in 10.0 mi South 10.4 mph - N/A   Clear
3:35 AM 57.2 °F 44.6 °F 63% 29.90 in 10.0 mi South 10.4 mph - N/A   Clear
3:55 AM 57.2 °F 46.4 °F 67% 29.89 in 10.0 mi South 12.7 mph - N/A   Clear
4:15 AM 59.0 °F 46.4 °F 63% 29.89 in 10.0 mi SSW 11.5 mph - N/A   Clear
4:35 AM 59.0 °F 46.4 °F 63% 29.89 in 10.0 mi SSW 10.4 mph - N/A   Clear
4:55 AM 57.2 °F 46.4 °F 67% 29.89 in 10.0 mi South 10.4 mph - N/A   Clear
5:15 AM 57.2 °F 46.4 °F 67% 29.89 in 10.0 mi South 9.2 mph - N/A   Clear
5:35 AM 57.2 °F 46.4 °F 67% 29.88 in 10.0 mi South 9.2 mph - N/A   Clear
5:55 AM 57.2 °F 46.4 °F 67% 29.88 in 10.0 mi South 9.2 mph - N/A   Clear
6:15 AM 55.4 °F 46.4 °F 72% 29.88 in 10.0 mi South 8.1 mph - N/A   Clear
6:35 AM 55.4 °F 46.4 °F 72% 29.88 in 10.0 mi South 8.1 mph - N/A   Clear
6:55 AM 55.4 °F 46.4 °F 72% 29.87 in 10.0 mi South 8.1 mph - N/A   Clear
7:15 AM 57.2 °F 46.4 °F 67% 29.88 in 10.0 mi South 9.2 mph - N/A   Clear
7:35 AM 57.2 °F 48.2 °F 72% 29.87 in 10.0 mi SSW 10.4 mph - N/A   Clear
7:55 AM 57.2 °F 48.2 °F 72% 29.87 in 10.0 mi South 11.5 mph - N/A   Clear
8:15 AM 59.0 °F 48.2 °F 67% 29.86 in 10.0 mi South 12.7 mph 17.3 mph N/A   Clear
8:35 AM 60.8 °F 48.2 °F 63% 29.87 in 10.0 mi SSW 12.7 mph - N/A   Clear
8:55 AM 62.6 °F 48.2 °F 59% 29.86 in 10.0 mi South 12.7 mph 19.6 mph N/A   Clear
9:15 AM 60.8 °F 48.2 °F 63% 29.86 in 1.8 mi SSW 12.7 mph - N/A   Clear
9:35 AM 62.6 °F 48.2 °F 59% 29.86 in 10.0 mi SSW 12.7 mph 16.1 mph N/A   Clear
9:55 AM 62.6 °F 48.2 °F 59% 29.86 in 10.0 mi SSW 12.7 mph 17.3 mph N/A   Clear
10:15 AM 62.6 °F 48.2 °F 59% 29.86 in 10.0 mi SSW 13.8 mph - N/A   Clear
10:35 AM 64.4 °F 48.2 °F 56% 29.86 in 10.0 mi SSW 11.5 mph 17.3 mph N/A   Clear
10:55 AM 64.4 °F 50.0 °F 59% 29.85 in 10.0 mi SSW 13.8 mph 17.3 mph N/A   Clear
11:15 AM 64.4 °F 50.0 °F 59% 29.85 in 10.0 mi SSW 11.5 mph - N/A   Clear
11:35 AM 64.4 °F 50.0 °F 59% 29.85 in 10.0 mi SSW 13.8 mph - N/A   Clear
11:55 AM 64.4 °F 50.0 °F 59% 29.84 in 10.0 mi SSW 12.7 mph - N/A   Clear
12:15 PM 64.4 °F 50.0 °F 59% 29.85 in 10.0 mi SSW 12.7 mph - N/A   Scattered Clouds
12:35 PM 64.4 °F 51.8 °F 64% 29.85 in 10.0 mi SSW 16.1 mph 19.6 mph N/A   Partly Cloudy
12:55 PM 66.2 °F 51.8 °F 60% 29.83 in 10.0 mi SSW 20.7 mph 24.2 mph N/A   Clear
1:15 PM 64.4 °F 51.8 °F 64% 29.84 in 10.0 mi SSW 15.0 mph 24.2 mph N/A   Clear
1:35 PM 64.4 °F 51.8 °F 64% 29.84 in 10.0 mi SSW 17.3 mph 20.7 mph N/A   Clear
1:55 PM 64.4 °F 51.8 °F 64% 29.85 in 10.0 mi SSW 12.7 mph 18.4 mph N/A   Clear
2:15 PM 64.4 °F 51.8 °F 64% 29.85 in 10.0 mi SSW 13.8 mph 20.7 mph N/A   Mostly Cloudy
2:35 PM 64.4 °F 51.8 °F 64% 29.85 in 10.0 mi SSW 12.7 mph 18.4 mph N/A   Mostly Cloudy
2:55 PM 64.4 °F 53.6 °F 68% 29.85 in 10.0 mi SW 11.5 mph - N/A   Mostly Cloudy
3:15 PM 64.4 °F 53.6 °F 68% 29.86 in 10.0 mi SW 10.4 mph - N/A   Overcast
3:35 PM 62.6 °F 53.6 °F 72% 29.88 in 10.0 mi SSW 4.6 mph - N/A   Overcast
3:55 PM 62.6 °F 53.6 °F 72% 29.88 in 10.0 mi SSW 3.5 mph - N/A   Overcast
4:15 PM 62.6 °F 53.6 °F 72% 29.88 in 10.0 mi South 9.2 mph - N/A   Overcast
4:35 PM 62.6 °F 53.6 °F 72% 29.88 in 10.0 mi South 8.1 mph - N/A   Overcast
4:55 PM 62.6 °F 53.6 °F 72% 29.88 in 10.0 mi South 5.8 mph - N/A   Overcast
5:15 PM 62.6 °F 53.6 °F 72% 29.88 in 10.0 mi South 6.9 mph - N/A   Overcast
5:35 PM 62.6 °F 53.6 °F 72% 29.88 in 10.0 mi South 6.9 mph - N/A   Overcast
5:55 PM 60.8 °F 53.6 °F 77% 29.89 in 10.0 mi South 4.6 mph - N/A   Overcast
6:15 PM 60.8 °F 53.6 °F 77% 29.89 in 10.0 mi South 5.8 mph - N/A   Overcast
6:35 PM 60.8 °F 53.6 °F 77% 29.90 in 10.0 mi South 5.8 mph - N/A   Overcast
6:55 PM 60.8 °F 53.6 °F 77% 29.90 in 10.0 mi South 8.1 mph - N/A   Overcast
7:15 PM 60.8 °F 53.6 °F 77% 29.90 in 10.0 mi SSW 4.6 mph - N/A   Overcast
7:35 PM 60.8 °F 53.6 °F 77% 29.91 in 10.0 mi Calm Calm - N/A   Overcast
7:55 PM 60.8 °F 53.6 °F 77% 29.92 in 10.0 mi Calm Calm - N/A   Overcast
8:15 PM 60.8 °F 55.4 °F 82% 29.93 in 10.0 mi Calm Calm - N/A   Overcast
8:35 PM 60.8 °F 55.4 °F 82% 29.93 in 10.0 mi Calm Calm - N/A   Overcast
8:55 PM 60.8 °F 55.4 °F 82% 29.93 in 10.0 mi Calm Calm - N/A   Overcast
9:15 PM 59.0 °F 55.4 °F 88% 29.94 in 10.0 mi Calm Calm - N/A   Overcast
9:35 PM 59.0 °F 55.4 °F 88% 29.95 in 10.0 mi Calm Calm - N/A   Overcast
9:55 PM 59.0 °F 55.4 °F 88% 29.95 in 10.0 mi Calm Calm - N/A   Overcast
10:15 PM 59.0 °F 55.4 °F 88% 29.95 in 10.0 mi Calm Calm - N/A   Overcast
10:35 PM 59.0 °F 53.6 °F 82% 29.96 in 8.0 mi West 6.9 mph - N/A   Overcast
10:55 PM 59.0 °F 55.4 °F 88% 29.97 in 10.0 mi NW 6.9 mph - N/A   Overcast
11:15 PM 59.0 °F 55.4 °F 88% 29.97 in 10.0 mi North 5.8 mph - N/A   Overcast
11:35 PM 60.8 °F 55.4 °F 82% 29.97 in 10.0 mi North 10.4 mph - N/A   Mostly Cloudy
11:55 PM 59.0 °F 53.6 °F 82% 29.98 in 10.0 mi NNW 9.2 mph - N/A   Overcast